Time;durP1;ratioP1;P1;durP2;ratioP2;P2;SDS_P1;SDS_P2;PMS_P1;PMS_P2;Temp;Humidity;BMP_temperature;BMP_pressure;BME280_temperature;BME280_humidity;BME280_pressure;Samples;Min_cycle;Max_cycle;Signal;HPM_P1;HPM_P2
2024/04/23 00:00:47;;;;;;;15.63;8.90;;;3.30;99.90;;;;;;5489100;26;20215;-73
2024/04/23 00:04:48;;;;;;;17.20;8.73;;;3.30;99.90;;;;;;5469603;26;20698;-73
2024/04/23 00:08:49;;;;;;;16.67;8.37;;;3.40;99.90;;;;;;5469551;26;20253;-73
2024/04/23 00:12:20;;;;;;;16.83;8.90;;;3.40;99.90;;;;;;5484932;26;20214;-73
2024/04/23 00:28:14;;;;;;;16.23;8.83;;;3.40;99.90;;;;;;5451360;26;20216;-73
2024/04/23 00:43:12;;;;;;;15.73;8.30;;;3.40;99.90;;;;;;5450179;26;20212;-74
2024/04/23 00:51:08;;;;;;;15.57;8.33;;;3.40;99.90;;;;;;5450000;26;20270;-73
2024/04/23 00:54:32;;;;;;;15.93;8.40;;;3.40;99.90;;;;;;5449790;26;20218;-74
2024/04/23 00:58:21;;;;;;;16.13;8.67;;;3.40;99.90;;;;;;5431452;26;20211;-74
2024/04/23 01:02:13;;;;;;;15.03;8.30;;;3.30;99.90;;;;;;5431356;26;20591;-73
2024/04/23 01:13:49;;;;;;;17.37;8.97;;;3.30;99.90;;;;;;5450343;26;20216;-73
2024/04/23 01:54:18;;;;;;;13.63;8.50;;;3.20;99.90;;;;;;5455433;26;20707;-73
2024/04/23 02:09:33;;;;;;;16.13;8.23;;;3.20;99.90;;;;;;5451622;26;20215;-76
2024/04/23 02:32:47;;;;;;;17.70;9.47;;;2.90;99.90;;;;;;5418461;26;20745;-73
2024/04/23 02:58:49;;;;;;;17.47;9.03;;;2.80;99.90;;;;;;5414525;26;20615;-74
2024/04/23 03:02:38;;;;;;;17.77;9.03;;;2.90;99.90;;;;;;5417770;26;20279;-74
2024/04/23 03:18:17;;;;;;;17.77;8.70;;;2.80;99.90;;;;;;5417292;26;20695;-73
2024/04/23 03:22:19;;;;;;;15.17;8.60;;;2.80;99.90;;;;;;5414851;26;20293;-74
2024/04/23 03:25:37;;;;;;;17.27;8.67;;;2.90;99.90;;;;;;5412912;26;20275;-73
2024/04/23 03:29:10;;;;;;;18.43;9.30;;;3.00;99.90;;;;;;5448274;26;20278;-74
2024/04/23 03:49:27;;;;;;;18.23;9.40;;;2.80;99.90;;;;;;5453702;26;20220;-73
2024/04/23 04:01:20;;;;;;;15.90;8.90;;;2.80;99.90;;;;;;5453887;26;20276;-74
2024/04/23 04:21:15;;;;;;;15.93;8.30;;;3.00;99.90;;;;;;5452035;26;20774;-74
2024/04/23 04:36:39;;;;;;;15.27;8.53;;;3.10;99.90;;;;;;5450351;26;20269;-74
2024/04/23 04:43:50;;;;;;;21.87;9.17;;;3.20;99.90;;;;;;5452881;26;20227;-74
2024/04/23 04:47:49;;;;;;;16.77;8.50;;;3.30;99.90;;;;;;5451824;26;20216;-74
2024/04/23 04:55:04;;;;;;;21.63;9.13;;;3.40;99.90;;;;;;5452815;26;20648;-74
2024/04/23 04:58:53;;;;;;;16.17;9.13;;;3.30;99.90;;;;;;5432723;26;20288;-74
2024/04/23 05:02:12;;;;;;;17.27;9.17;;;3.40;99.90;;;;;;5449079;26;20215;-74
2024/04/23 05:05:42;;;;;;;14.73;8.17;;;3.20;99.90;;;;;;5448177;26;20581;-75
2024/04/23 05:09:32;;;;;;;16.43;8.77;;;3.40;99.90;;;;;;5453438;26;20333;-75
2024/04/23 05:17:09;;;;;;;15.80;8.80;;;3.40;99.90;;;;;;5456032;26;20221;-75
2024/04/23 05:20:58;;;;;;;20.20;9.60;;;3.40;99.90;;;;;;5454330;26;20333;-74
2024/04/23 05:24:52;;;;;;;18.27;8.97;;;3.30;99.90;;;;;;5456049;26;20345;-75
2024/04/23 05:40:14;;;;;;;16.53;9.30;;;3.80;99.90;;;;;;5455512;26;20254;-74
2024/04/23 05:43:35;;;;;;;16.40;8.87;;;4.00;99.90;;;;;;5433948;26;20357;-75
2024/04/23 06:07:04;;;;;;;14.73;8.90;;;4.60;99.90;;;;;;5452793;26;20258;-75
2024/04/23 06:11:26;;;;;;;14.00;8.20;;;4.40;99.90;;;;;;5455362;26;20256;-75
2024/04/23 06:14:45;;;;;;;15.37;8.70;;;4.60;99.90;;;;;;5425809;26;20324;-75
2024/04/23 06:26:17;;;;;;;15.37;8.47;;;5.20;99.90;;;;;;5452387;26;20647;-75
2024/04/23 06:41:50;;;;;;;12.63;7.90;;;5.70;99.90;;;;;;5451879;26;20215;-75
2024/04/23 06:45:27;;;;;;;13.07;7.30;;;5.60;99.90;;;;;;5451378;26;20300;-75
2024/04/23 06:52:41;;;;;;;14.40;7.17;;;6.30;99.90;;;;;;5451622;26;20318;-75
2024/04/23 07:11:24;;;;;;;16.97;6.53;;;7.00;99.90;;;;;;5451860;26;20267;-75
2024/04/23 07:26:12;;;;;;;12.67;5.07;;;6.90;99.90;;;;;;5450952;26;20323;-74
2024/04/23 07:29:31;;;;;;;7.27;3.57;;;7.20;99.90;;;;;;5426611;26;20281;-74
2024/04/23 07:37:14;;;;;;;5.70;3.60;;;7.00;99.90;;;;;;5451549;26;20218;-75
2024/04/23 07:41:18;;;;;;;3.93;2.93;;;7.20;99.90;;;;;;5452311;26;20212;-75
2024/04/23 07:44:40;;;;;;;3.30;2.23;;;6.60;99.90;;;;;;5428867;26;20608;-75
2024/04/23 07:48:08;;;;;;;3.23;2.23;;;6.80;99.90;;;;;;5485596;26;20260;-75
2024/04/23 07:55:43;;;;;;;5.53;3.60;;;7.00;99.90;;;;;;5485011;26;20221;-75
2024/04/23 07:59:17;;;;;;;4.03;2.87;;;7.20;99.90;;;;;;5489278;26;20548;-75
2024/04/23 08:10:05;;;;;;;4.37;3.10;;;7.00;99.90;;;;;;5484311;26;20270;-76
2024/04/23 08:12:54;;;;;;;5.67;3.20;;;7.20;99.90;;;;;;5460022;26;20264;-76
2024/04/23 08:15:41;;;;;;;6.10;3.60;;;7.40;99.90;;;;;;5459794;26;20322;-76
2024/04/23 08:18:28;;;;;;;7.03;3.73;;;7.10;99.90;;;;;;5484842;26;20218;-75
2024/04/23 08:21:16;;;;;;;6.17;4.07;;;7.10;99.90;;;;;;5485394;26;20288;-76
2024/04/23 08:24:04;;;;;;;5.17;3.40;;;7.30;99.90;;;;;;5485971;26;20259;-75
2024/04/23 08:26:51;;;;;;;5.80;3.13;;;7.10;99.90;;;;;;5485186;26;20280;-75
2024/04/23 08:29:39;;;;;;;4.17;3.23;;;7.30;99.90;;;;;;5486138;26;20804;-76
2024/04/23 08:36:54;;;;;;;4.23;3.00;;;7.90;99.90;;;;;;5486036;26;20214;-76
2024/04/23 08:40:02;;;;;;;5.23;3.27;;;7.80;99.90;;;;;;5459628;26;20304;-75
2024/04/23 08:44:03;;;;;;;3.67;2.77;;;7.90;99.90;;;;;;5469517;26;20211;-76
2024/04/23 08:47:28;;;;;;;4.87;3.10;;;8.30;99.90;;;;;;5488123;26;20225;-75
2024/04/23 08:54:42;;;;;;;3.90;2.77;;;8.40;99.90;;;;;;5488485;26;20213;-75
2024/04/23 08:58:30;;;;;;;4.40;2.53;;;9.10;99.90;;;;;;5491714;26;20210;-76
2024/04/23 09:13:42;;;;;;;5.87;3.73;;;9.70;98.30;;;;;;5487025;26;20257;-76
2024/04/23 09:17:04;;;;;;;6.97;3.80;;;9.80;97.20;;;;;;5488587;26;20293;-75
2024/04/23 09:20:29;;;;;;;5.30;3.37;;;9.10;97.10;;;;;;5487838;26;20223;-74
2024/04/23 09:24:00;;;;;;;6.93;3.73;;;9.10;98.20;;;;;;5487885;26;20226;-75
2024/04/23 09:27:42;;;;;;;5.50;3.53;;;9.10;99.10;;;;;;5470295;26;20217;-75
2024/04/23 09:31:25;;;;;;;5.20;3.50;;;9.00;98.00;;;;;;5463230;26;20214;-76
2024/04/23 09:38:30;;;;;;;5.30;3.40;;;8.70;99.30;;;;;;5487016;26;20218;-76
2024/04/23 09:41:55;;;;;;;5.60;4.07;;;9.00;99.00;;;;;;5487872;26;20226;-76
2024/04/23 09:45:31;;;;;;;7.17;3.90;;;8.90;98.80;;;;;;5490857;26;20215;-75
2024/04/23 09:48:53;;;;;;;8.00;3.90;;;8.90;99.20;;;;;;5487662;26;20262;-76
2024/04/23 09:52:12;;;;;;;6.17;3.90;;;8.30;99.10;;;;;;5463547;26;20217;-76
2024/04/23 09:55:39;;;;;;;7.23;3.90;;;8.70;99.10;;;;;;5486155;26;20248;-76
2024/04/23 09:59:04;;;;;;;5.30;3.57;;;9.10;99.90;;;;;;5487785;26;20638;-76
2024/04/23 10:02:40;;;;;;;8.13;4.63;;;9.40;99.60;;;;;;5490762;26;20322;-76
2024/04/23 10:05:51;;;;;;;6.07;4.23;;;9.40;99.40;;;;;;5487387;26;20596;-75
2024/04/23 10:17:31;;;;;;;5.80;4.13;;;8.40;98.50;;;;;;5490555;26;20269;-75
2024/04/23 10:28:17;;;;;;;6.43;4.37;;;9.70;99.30;;;;;;5485643;26;20214;-75
2024/04/23 10:31:45;;;;;;;6.20;4.10;;;10.30;98.70;;;;;;5486271;26;20346;-75
2024/04/23 10:35:12;;;;;;;7.23;4.20;;;10.50;98.30;;;;;;5487897;26;20226;-76
2024/04/23 10:38:37;;;;;;;6.53;4.33;;;10.50;97.20;;;;;;5486673;26;20700;-76
2024/04/23 10:50:06;;;;;;;7.17;4.53;;;10.60;96.80;;;;;;5489767;26;20756;-75
2024/04/23 11:14:14;;;;;;;6.77;4.33;;;13.60;95.20;;;;;;5486066;26;20751;-76
2024/04/23 11:18:12;;;;;;;6.90;4.47;;;14.90;91.40;;;;;;5470674;26;20560;-76
2024/04/23 11:21:25;;;;;;;8.70;4.20;;;15.50;88.40;;;;;;5486147;26;20289;-76
2024/04/23 11:24:59;;;;;;;6.53;4.43;;;15.50;84.50;;;;;;5489913;26;20226;-76
2024/04/23 11:28:21;;;;;;;6.77;4.50;;;15.00;81.20;;;;;;5486778;26;20210;-76
2024/04/23 11:36:05;;;;;;;5.80;4.30;;;14.90;82.60;;;;;;5414071;26;20235;-76
2024/04/23 11:39:38;;;;;;;5.60;4.57;;;14.90;85.20;;;;;;5454537;26;20271;-76
2024/04/23 11:43:12;;;;;;;7.03;4.60;;;14.70;80.00;;;;;;5454940;26;20257;-76
2024/04/23 11:47:12;;;;;;;7.63;4.50;;;15.10;80.40;;;;;;5434632;26;20258;-76
2024/04/23 11:51:13;;;;;;;6.97;4.43;;;15.10;80.00;;;;;;5450229;26;20255;-76
2024/04/23 12:02:28;;;;;;;8.23;4.77;;;13.50;81.00;;;;;;5454717;26;20226;-77
2024/04/23 12:05:41;;;;;;;7.27;4.73;;;14.00;84.40;;;;;;5450936;26;20626;-76
2024/04/23 12:08:59;;;;;;;7.43;4.33;;;15.10;82.10;;;;;;5450678;26;20219;-76
2024/04/23 12:12:27;;;;;;;7.17;4.43;;;16.30;75.50;;;;;;5451891;26;20220;-76
2024/04/23 12:15:37;;;;;;;6.47;4.37;;;16.10;74.90;;;;;;5448763;26;20211;-76
2024/04/23 12:18:52;;;;;;;7.57;4.70;;;15.60;79.00;;;;;;5449891;26;20215;-76
2024/04/23 12:30:04;;;;;;;7.00;4.87;;;14.30;79.00;;;;;;5454203;26;20219;-76
2024/04/23 12:33:28;;;;;;;7.10;4.80;;;13.50;80.30;;;;;;5423058;26;20533;-77
2024/04/23 12:36:50;;;;;;;7.17;4.40;;;13.20;82.20;;;;;;5450387;26;20216;-77
2024/04/23 12:40:07;;;;;;;7.03;4.87;;;13.30;83.10;;;;;;5424224;26;20222;-76
2024/04/23 12:43:43;;;;;;;6.90;4.67;;;13.20;81.80;;;;;;5451266;26;20266;-76
2024/04/23 12:47:09;;;;;;;7.20;4.93;;;13.10;81.60;;;;;;5450478;26;20258;-76
2024/04/23 12:50:18;;;;;;;6.70;5.03;;;13.00;84.00;;;;;;5451313;26;20267;-76
2024/04/23 12:53:29;;;;;;;7.43;4.63;;;13.30;84.00;;;;;;5431047;26;20223;-76
2024/04/23 12:56:17;;;;;;;8.03;5.23;;;14.20;82.00;;;;;;5449004;26;20320;-76
2024/04/23 12:59:07;;;;;;;7.10;5.00;;;15.30;79.50;;;;;;5448808;26;20293;-76
2024/04/23 13:01:54;;;;;;;6.73;4.70;;;16.30;78.50;;;;;;5448710;26;20264;-76
2024/04/23 13:04:42;;;;;;;9.37;5.30;;;17.10;77.70;;;;;;5448934;26;20763;-76
2024/04/23 13:07:29;;;;;;;7.20;5.20;;;17.60;73.70;;;;;;5450640;26;20271;-76
2024/04/23 13:10:17;;;;;;;7.40;5.30;;;17.90;71.80;;;;;;5450660;26;20710;-77
2024/04/23 13:13:08;;;;;;;7.87;5.00;;;18.30;69.80;;;;;;5422762;26;20597;-76
2024/04/23 13:15:55;;;;;;;8.00;5.07;;;18.40;70.30;;;;;;5450675;26;20215;-76
2024/04/23 13:18:42;;;;;;;7.67;4.73;;;18.70;68.70;;;;;;5423594;26;20215;-76
2024/04/23 13:21:30;;;;;;;8.03;5.13;;;18.50;65.90;;;;;;5450721;26;20215;-76
2024/04/23 13:24:17;;;;;;;6.30;5.27;;;18.30;66.70;;;;;;5449135;26;20639;-76
2024/04/23 13:27:05;;;;;;;8.27;5.33;;;18.60;66.90;;;;;;5449610;26;20271;-76
2024/04/23 13:29:52;;;;;;;8.60;5.67;;;18.80;65.60;;;;;;5451880;26;20207;-76
2024/04/23 13:32:40;;;;;;;7.20;4.83;;;18.70;63.10;;;;;;5425812;26;20215;-76
2024/04/23 13:35:28;;;;;;;7.77;5.37;;;19.50;63.00;;;;;;5452203;26;20603;-76
2024/04/23 13:38:16;;;;;;;7.43;5.27;;;20.10;62.40;;;;;;5453348;26;20261;-77
2024/04/23 13:41:04;;;;;;;7.23;5.33;;;20.60;61.90;;;;;;5451126;26;20211;-76
2024/04/23 13:43:54;;;;;;;8.03;5.63;;;20.60;59.80;;;;;;5427094;26;20216;-76
2024/04/23 13:46:42;;;;;;;7.80;5.63;;;20.50;59.60;;;;;;5453072;26;20212;-77
2024/04/23 13:49:29;;;;;;;8.07;5.57;;;20.80;59.20;;;;;;5451420;26;20339;-76
2024/04/23 13:52:17;;;;;;;6.90;5.40;;;21.10;57.60;;;;;;5453077;26;20254;-76
2024/04/23 13:55:05;;;;;;;8.33;5.67;;;20.90;57.20;;;;;;5452134;26;20215;-76
2024/04/23 13:57:58;;;;;;;6.67;5.33;;;21.30;57.10;;;;;;5452114;26;20275;-77
2024/04/23 14:00:45;;;;;;;7.50;5.97;;;21.20;56.60;;;;;;5453918;26;20215;-77
2024/04/23 14:03:34;;;;;;;7.83;5.73;;;20.70;55.60;;;;;;5426706;26;20216;-77
2024/04/23 14:06:22;;;;;;;6.97;5.57;;;20.50;56.70;;;;;;5451907;26;20571;-77
2024/04/23 14:09:10;;;;;;;8.17;5.93;;;20.60;56.60;;;;;;5427499;26;20258;-77
2024/04/23 14:11:57;;;;;;;7.75;5.50;;;20.90;55.50;;;;;;5451860;26;20223;-77
2024/04/23 14:14:45;;;;;;;7.70;5.53;;;21.50;56.70;;;;;;5427581;26;20754;-77
2024/04/23 14:17:32;;;;;;;8.75;5.53;;;21.70;55.20;;;;;;5453028;26;20271;-76
2024/04/23 14:20:20;;;;;;;8.00;5.67;;;21.30;54.00;;;;;;5451486;26;20302;-77
2024/04/23 14:23:08;;;;;;;6.65;5.07;;;21.80;54.30;;;;;;5425339;26;20321;-77
2024/04/23 14:25:56;;;;;;;6.70;5.20;;;21.90;54.40;;;;;;5450472;26;20211;-77
2024/04/23 14:28:43;;;;;;;7.50;5.37;;;21.30;53.70;;;;;;5427280;26;20219;-77
2024/04/23 14:31:32;;;;;;;6.53;5.07;;;21.40;54.50;;;;;;5452362;26;20699;-77
2024/04/23 14:34:23;;;;;;;8.53;5.80;;;21.80;53.90;;;;;;5451114;26;20297;-77
2024/04/23 14:37:10;;;;;;;7.43;5.60;;;21.60;53.40;;;;;;5451037;26;20215;-77
2024/04/23 14:39:57;;;;;;;8.60;5.67;;;21.30;54.30;;;;;;5450089;26;20211;-77
2024/04/23 14:42:45;;;;;;;7.30;5.67;;;20.60;53.50;;;;;;5449976;26;20223;-76
2024/04/23 14:45:34;;;;;;;6.73;5.17;;;20.60;53.20;;;;;;5450858;26;20634;-76
2024/04/23 14:48:22;;;;;;;7.93;5.87;;;19.70;53.80;;;;;;5449975;26;20970;-75
2024/04/23 14:51:10;;;;;;;6.87;5.73;;;19.80;55.60;;;;;;5451002;26;20235;-75
2024/04/23 14:53:57;;;;;;;8.40;5.53;;;19.20;54.40;;;;;;5452304;26;20227;-75
2024/04/23 14:56:45;;;;;;;6.90;5.33;;;17.60;56.90;;;;;;5452154;26;20215;-75
2024/04/23 14:59:32;;;;;;;9.13;4.70;;;18.20;58.30;;;;;;5451370;26;20548;-75
2024/04/23 15:02:21;;;;;;;7.77;4.97;;;18.50;59.60;;;;;;5449729;26;20583;-74
2024/04/23 15:05:08;;;;;;;9.37;5.13;;;19.20;58.60;;;;;;5451818;26;20235;-75
2024/04/23 15:07:56;;;;;;;6.70;5.00;;;19.70;56.90;;;;;;5451919;26;20256;-74
2024/04/23 15:10:45;;;;;;;8.27;5.53;;;20.20;57.20;;;;;;5449491;26;20229;-75
2024/04/23 15:13:33;;;;;;;8.87;5.10;;;20.50;56.00;;;;;;5452016;26;20265;-74
2024/04/23 15:16:20;;;;;;;7.17;5.47;;;20.70;55.50;;;;;;5452883;26;20266;-75
2024/04/23 15:19:17;;;;;;;8.73;5.60;;;20.80;55.20;;;;;;5425416;26;20664;-75
2024/04/23 15:22:04;;;;;;;6.87;5.40;;;20.90;54.80;;;;;;5452672;26;20216;-77
2024/04/23 15:24:53;;;;;;;7.07;4.83;;;21.20;54.00;;;;;;5450444;26;20219;-76
2024/04/23 15:27:40;;;;;;;7.13;5.47;;;21.90;53.40;;;;;;5425540;26;20224;-76
2024/04/23 15:30:27;;;;;;;9.93;5.57;;;22.30;52.30;;;;;;5451534;26;20216;-77
2024/04/23 15:33:15;;;;;;;8.70;5.70;;;21.70;53.70;;;;;;5426014;26;20302;-75
2024/04/23 15:36:04;;;;;;;7.93;5.37;;;21.00;52.90;;;;;;5451378;26;20287;-75
2024/04/23 15:39:03;;;;;;;6.77;4.83;;;20.20;54.70;;;;;;5449677;26;20215;-74
2024/04/23 15:41:51;;;;;;;10.40;5.30;;;18.90;57.90;;;;;;5450399;26;20219;-75
2024/04/23 15:44:38;;;;;;;7.20;4.80;;;18.10;59.90;;;;;;5450223;26;20620;-75
2024/04/23 15:47:26;;;;;;;7.37;5.03;;;16.90;60.60;;;;;;5450965;26;20215;-76
2024/04/23 15:50:15;;;;;;;8.10;4.80;;;16.10;61.50;;;;;;5451288;26;20227;-76
2024/04/23 15:53:03;;;;;;;8.73;4.90;;;15.50;64.60;;;;;;5448594;26;20695;-76
2024/04/23 15:55:51;;;;;;;8.40;4.77;;;14.90;67.00;;;;;;5426231;26;20211;-75
2024/04/23 15:58:38;;;;;;;7.07;4.80;;;14.50;67.10;;;;;;5451311;26;20358;-76
2024/04/23 16:01:25;;;;;;;160.33;77.57;;;13.90;70.10;;;;;;5448667;26;20219;-77
2024/04/23 16:04:13;;;;;;;33.13;19.33;;;14.00;70.60;;;;;;5449713;26;20231;-76
2024/04/23 16:07:01;;;;;;;8.33;5.20;;;14.20;71.30;;;;;;5450733;26;20255;-76
2024/04/23 16:09:49;;;;;;;6.97;4.67;;;14.80;70.90;;;;;;5448092;26;20226;-79
2024/04/23 16:12:36;;;;;;;5.50;4.17;;;15.30;67.90;;;;;;5450798;26;20585;-78
2024/04/23 16:15:25;;;;;;;6.10;4.50;;;15.90;65.80;;;;;;5450048;26;20223;-78
2024/04/23 16:18:12;;;;;;;6.40;4.30;;;16.40;65.60;;;;;;5424588;26;20278;-78
2024/04/23 16:21:07;;;;;;;6.03;4.43;;;16.50;64.50;;;;;;5448757;26;20334;-78
2024/04/23 16:23:56;;;;;;;6.83;4.57;;;16.80;63.90;;;;;;5447563;26;20642;-79
2024/04/23 16:26:43;;;;;;;8.13;4.63;;;16.70;63.10;;;;;;5449087;26;20291;-78
2024/04/23 16:29:31;;;;;;;7.53;4.90;;;16.80;62.90;;;;;;5449615;26;20264;-78
2024/04/23 16:32:18;;;;;;;7.17;5.00;;;16.50;63.40;;;;;;5450220;26;20621;-77
2024/04/23 16:35:06;;;;;;;7.17;4.90;;;16.50;64.00;;;;;;5450240;26;20227;-78
2024/04/23 16:37:54;;;;;;;7.70;4.80;;;16.10;64.10;;;;;;5450090;26;20286;-77
2024/04/23 16:40:42;;;;;;;7.30;4.53;;;15.70;65.20;;;;;;5423269;26;20258;-77
2024/04/23 16:43:31;;;;;;;6.63;4.50;;;15.60;65.40;;;;;;5451155;26;20218;-78
2024/04/23 16:46:19;;;;;;;5.87;4.40;;;15.40;67.90;;;;;;5421948;26;20220;-77
2024/04/23 16:49:07;;;;;;;7.40;4.73;;;15.10;67.80;;;;;;5398358;26;20215;-77
2024/04/23 16:51:54;;;;;;;7.20;4.37;;;14.80;71.50;;;;;;5450984;26;20256;-78
2024/04/23 16:54:42;;;;;;;8.90;4.73;;;14.40;71.90;;;;;;5449362;26;20267;-77
2024/04/23 16:57:30;;;;;;;6.40;4.30;;;14.00;73.80;;;;;;5449483;26;20702;-78
2024/04/23 17:00:17;;;;;;;6.83;4.27;;;13.50;74.20;;;;;;5448281;26;20211;-78
2024/04/23 17:03:05;;;;;;;6.67;4.60;;;13.10;75.60;;;;;;5448998;26;20215;-78
2024/04/23 17:05:53;;;;;;;6.73;4.40;;;12.70;76.30;;;;;;5452486;26;20295;-78
2024/04/23 17:08:41;;;;;;;8.30;4.73;;;12.40;76.80;;;;;;5450021;26;20636;-78
2024/04/23 17:11:28;;;;;;;6.20;4.30;;;12.10;77.90;;;;;;5452596;26;20295;-77
2024/04/23 17:14:16;;;;;;;6.83;4.50;;;11.80;79.20;;;;;;5452414;26;20211;-77
2024/04/23 17:17:04;;;;;;;7.40;4.57;;;11.60;80.30;;;;;;5450830;26;20369;-77
2024/04/23 17:19:52;;;;;;;8.33;4.90;;;11.40;80.60;;;;;;5454164;26;20270;-78
2024/04/23 17:22:40;;;;;;;20.17;13.60;;;11.20;82.40;;;;;;5426190;26;20711;-79
2024/04/23 17:25:28;;;;;;;8.87;6.00;;;10.90;82.40;;;;;;5451926;26;20222;-77
2024/04/23 17:28:16;;;;;;;8.37;5.30;;;10.60;83.90;;;;;;5454149;26;20554;-76
2024/04/23 17:31:06;;;;;;;8.47;4.90;;;10.50;85.30;;;;;;5453347;26;20719;-79
2024/04/23 17:33:57;;;;;;;7.47;5.17;;;10.30;86.80;;;;;;5427317;26;20278;-76
2024/04/23 17:36:46;;;;;;;8.27;5.13;;;10.20;87.90;;;;;;5452954;26;20698;-79
2024/04/23 17:39:33;;;;;;;7.03;4.67;;;9.90;89.10;;;;;;5454190;26;20273;-80
2024/04/23 17:42:21;;;;;;;7.93;4.97;;;9.70;89.10;;;;;;5428709;26;20287;-81
2024/04/23 17:45:11;;;;;;;12.03;5.73;;;9.60;89.40;;;;;;5454181;26;20287;-81
2024/04/23 17:47:59;;;;;;;8.93;5.50;;;9.40;90.40;;;;;;5452871;26;20271;-80
2024/04/23 17:50:46;;;;;;;7.70;5.33;;;9.30;90.50;;;;;;5451240;26;20280;-79
2024/04/23 17:53:34;;;;;;;9.87;5.53;;;9.20;90.80;;;;;;5451582;26;20215;-81
2024/04/23 17:56:21;;;;;;;7.90;5.43;;;9.10;91.10;;;;;;5452877;26;20324;-80
2024/04/23 17:59:09;;;;;;;9.50;6.07;;;9.00;91.50;;;;;;5452594;26;20312;-80
2024/04/23 18:01:57;;;;;;;10.67;6.43;;;8.90;92.20;;;;;;5453940;26;20215;-81
2024/04/23 18:04:45;;;;;;;9.87;6.30;;;8.80;92.50;;;;;;5451365;26;20312;-81
2024/04/23 18:07:33;;;;;;;10.83;6.70;;;8.70;93.40;;;;;;5451723;26;20260;-80
2024/04/23 18:10:20;;;;;;;10.73;7.13;;;8.50;93.80;;;;;;5451256;26;20212;-80
2024/04/23 18:13:08;;;;;;;10.93;7.30;;;8.50;95.10;;;;;;5451355;26;20227;-80
2024/04/23 18:16:02;;;;;;;11.30;7.13;;;8.30;95.60;;;;;;5451735;26;20322;-80
2024/04/23 18:18:53;;;;;;;12.93;7.10;;;8.20;96.20;;;;;;5451742;26;20321;-80
2024/04/23 18:21:40;;;;;;;14.07;6.93;;;8.10;96.70;;;;;;5451182;26;20254;-80
2024/04/23 18:24:28;;;;;;;9.67;6.90;;;8.10;97.90;;;;;;5423095;26;20227;-80
2024/04/23 18:27:19;;;;;;;14.53;7.63;;;7.90;98.60;;;;;;5453580;26;20328;-80
2024/04/23 18:30:07;;;;;;;15.00;7.80;;;7.80;99.90;;;;;;5451021;26;20219;-79
2024/04/23 18:32:55;;;;;;;11.73;7.90;;;7.70;99.90;;;;;;5457449;26;20242;-80
2024/04/23 18:35:43;;;;;;;11.93;7.73;;;7.70;99.90;;;;;;5461296;26;20330;-80
2024/04/23 18:38:32;;;;;;;12.20;7.97;;;7.60;99.90;;;;;;5487042;26;20215;-77
2024/04/23 18:41:20;;;;;;;134.03;69.53;;;7.50;99.90;;;;;;5466989;26;20218;-83
2024/04/23 18:44:11;;;;;;;18.07;11.00;;;7.40;99.90;;;;;;5464343;26;20326;-78
2024/04/23 18:46:58;;;;;;;16.37;8.97;;;7.40;99.90;;;;;;5488840;26;20214;-78
2024/04/23 18:49:46;;;;;;;14.20;8.13;;;7.30;99.90;;;;;;5485274;26;20228;-76
2024/04/23 18:52:34;;;;;;;11.40;7.90;;;7.30;99.90;;;;;;5488677;26;20215;-78
2024/04/23 18:55:21;;;;;;;11.40;7.37;;;7.20;99.90;;;;;;5485398;26;20663;-78
2024/04/23 18:58:11;;;;;;;14.63;7.80;;;7.10;99.90;;;;;;5486349;26;20475;-79
2024/04/23 19:01:10;;;;;;;12.60;7.63;;;7.10;99.90;;;;;;5458850;26;20499;-78
2024/04/23 19:03:59;;;;;;;11.73;7.50;;;7.00;99.90;;;;;;5461805;26;20214;-79
2024/04/23 19:06:46;;;;;;;12.97;8.00;;;7.00;99.90;;;;;;5460613;26;20272;-79
2024/04/23 19:09:35;;;;;;;13.07;8.83;;;6.90;99.90;;;;;;5487215;26;20260;-79
2024/04/23 19:12:22;;;;;;;14.07;8.33;;;6.80;99.90;;;;;;5486319;26;20314;-79
2024/04/23 19:15:10;;;;;;;13.47;7.93;;;6.70;99.90;;;;;;5485953;26;20329;-80
2024/04/23 19:17:59;;;;;;;14.87;8.57;;;6.70;99.90;;;;;;5485884;26;20948;-78
2024/04/23 19:20:47;;;;;;;14.97;8.83;;;6.60;99.90;;;;;;5487075;26;20256;-79
2024/04/23 19:23:35;;;;;;;13.47;8.27;;;6.50;99.90;;;;;;5458497;26;20329;-78
2024/04/23 19:26:23;;;;;;;15.27;8.70;;;6.50;99.90;;;;;;5460207;26;20218;-78
2024/04/23 19:29:11;;;;;;;16.40;8.53;;;6.40;99.90;;;;;;5459468;26;20273;-78
2024/04/23 19:31:58;;;;;;;15.20;8.90;;;6.40;99.90;;;;;;5462031;26;20213;-78
2024/04/23 19:34:46;;;;;;;17.57;9.47;;;6.30;99.90;;;;;;5487153;26;20296;-77
2024/04/23 19:37:33;;;;;;;16.33;9.70;;;6.30;99.90;;;;;;5485563;26;20556;-77
2024/04/23 19:40:21;;;;;;;16.63;9.37;;;6.30;99.90;;;;;;5486061;26;20326;-78
2024/04/23 19:43:09;;;;;;;14.97;9.17;;;6.20;99.90;;;;;;5461487;26;20223;-76
2024/04/23 19:46:03;;;;;;;15.93;8.70;;;6.20;99.90;;;;;;5486093;26;20228;-76
2024/04/23 19:48:50;;;;;;;15.93;10.10;;;6.10;99.90;;;;;;5484991;26;21186;-77
2024/04/23 19:51:38;;;;;;;17.23;9.50;;;6.10;99.90;;;;;;5486824;26;20215;-76
2024/04/23 19:54:27;;;;;;;17.37;9.93;;;6.00;99.90;;;;;;5485609;26;20320;-76
2024/04/23 20:00:04;;;;;;;16.87;9.93;;;5.90;99.90;;;;;;5487024;26;20228;-78
2024/04/23 20:02:52;;;;;;;17.33;10.63;;;5.90;99.90;;;;;;5460352;26;20553;-77
2024/04/23 20:05:40;;;;;;;18.27;10.30;;;5.90;99.90;;;;;;5460963;26;20278;-77
2024/04/23 20:08:30;;;;;;;16.67;10.93;;;5.70;99.90;;;;;;5485776;26;20708;-77
2024/04/23 20:11:18;;;;;;;19.13;10.30;;;5.80;99.90;;;;;;5460955;26;20674;-77
2024/04/23 20:14:05;;;;;;;18.10;10.30;;;5.70;99.90;;;;;;5485031;26;20629;-78
2024/04/23 20:16:54;;;;;;;17.20;10.37;;;5.60;99.90;;;;;;5436187;26;20216;-78
2024/04/23 20:19:42;;;;;;;19.27;10.80;;;5.60;99.90;;;;;;5460868;26;20250;-79
2024/04/23 20:22:30;;;;;;;62.77;33.23;;;5.50;99.90;;;;;;5488195;26;20260;-86
2024/04/23 20:25:17;;;;;;;26.43;14.47;;;5.50;99.90;;;;;;5462826;26;20221;-76
2024/04/23 20:28:05;;;;;;;20.13;11.27;;;5.40;99.90;;;;;;5486105;26;20692;-73
2024/04/23 20:30:52;;;;;;;19.87;10.67;;;5.40;99.90;;;;;;5485192;26;20623;-73
2024/04/23 20:33:41;;;;;;;17.83;10.77;;;5.40;99.90;;;;;;5460647;26;20280;-74
2024/04/23 20:36:28;;;;;;;19.33;10.93;;;5.40;99.90;;;;;;5487148;26;20222;-74
2024/04/23 20:39:16;;;;;;;19.30;11.50;;;5.40;99.90;;;;;;5487343;26;20263;-73
2024/04/23 20:42:03;;;;;;;18.67;11.17;;;5.30;99.90;;;;;;5462180;26;20258;-73
2024/04/23 20:44:51;;;;;;;20.07;11.77;;;5.40;99.90;;;;;;5490564;26;20229;-73
2024/04/23 20:47:39;;;;;;;20.53;11.90;;;5.40;99.90;;;;;;5490384;26;20688;-73
2024/04/23 20:50:27;;;;;;;19.53;11.80;;;5.40;99.90;;;;;;5489038;26;20269;-73
2024/04/23 20:53:14;;;;;;;19.47;11.70;;;5.40;99.90;;;;;;5464096;26;20258;-73
2024/04/23 20:56:04;;;;;;;20.90;11.87;;;5.40;99.90;;;;;;5489369;26;20218;-74
2024/04/23 20:58:52;;;;;;;20.47;12.00;;;5.40;99.90;;;;;;5490339;26;20538;-74
2024/04/23 21:01:40;;;;;;;20.70;11.87;;;5.40;99.90;;;;;;5488048;26;20215;-74
2024/04/23 21:04:27;;;;;;;20.23;11.67;;;5.30;99.90;;;;;;5488440;26;20591;-74
2024/04/23 21:07:16;;;;;;;23.47;13.03;;;5.30;99.90;;;;;;5462880;26;20211;-76
2024/04/23 21:10:05;;;;;;;57.27;32.60;;;5.30;99.90;;;;;;5462579;26;20213;-76
2024/04/23 21:12:52;;;;;;;22.20;13.30;;;5.40;99.90;;;;;;5490164;26;20874;-75
2024/04/23 21:15:40;;;;;;;23.40;12.67;;;5.40;99.90;;;;;;5488909;26;20227;-77
2024/04/23 21:18:28;;;;;;;24.80;13.50;;;5.40;99.90;;;;;;5490139;26;20211;-75
2024/04/23 21:21:16;;;;;;;25.90;13.53;;;5.40;99.90;;;;;;5487931;26;20211;-74
2024/04/23 21:24:04;;;;;;;23.77;12.77;;;5.40;99.90;;;;;;5488789;26;20227;-74
2024/04/23 21:26:51;;;;;;;25.73;13.57;;;5.40;99.90;;;;;;5462682;26;20280;-74
2024/04/23 21:29:40;;;;;;;22.27;13.20;;;5.30;99.90;;;;;;5464485;26;20264;-75
2024/04/23 21:32:27;;;;;;;24.13;13.37;;;5.40;99.90;;;;;;5463443;26;20264;-74
2024/04/23 21:35:15;;;;;;;21.70;13.07;;;5.40;99.90;;;;;;5463068;26;20228;-74
2024/04/23 21:38:03;;;;;;;22.37;13.40;;;5.40;99.90;;;;;;5487511;26;20215;-74
2024/04/23 21:40:51;;;;;;;23.13;13.37;;;5.30;99.90;;;;;;5488507;26;20732;-75
2024/04/23 21:43:39;;;;;;;23.57;14.00;;;5.40;99.90;;;;;;5463038;26;20229;-75
2024/04/23 21:46:27;;;;;;;23.50;13.20;;;5.40;99.90;;;;;;5487276;26;20214;-75
2024/04/23 21:49:14;;;;;;;25.03;14.30;;;5.30;99.90;;;;;;5488506;26;20596;-75
2024/04/23 21:52:02;;;;;;;23.07;14.17;;;5.30;99.90;;;;;;5486105;26;20217;-75
2024/04/23 21:55:09;;;;;;;24.97;14.10;;;5.20;99.90;;;;;;5488743;26;20224;-76
2024/04/23 21:57:57;;;;;;;22.93;13.93;;;5.30;99.90;;;;;;5463907;26;20261;-75
2024/04/23 22:00:45;;;;;;;22.67;13.87;;;5.30;99.90;;;;;;5487106;26;20254;-75
2024/04/23 22:03:32;;;;;;;24.53;13.57;;;5.30;99.90;;;;;;5489823;26;20325;-75
2024/04/23 22:06:20;;;;;;;27.17;14.03;;;5.30;99.90;;;;;;5488303;26;20216;-76
2024/04/23 22:09:08;;;;;;;22.43;13.57;;;5.30;99.90;;;;;;5488151;26;20267;-76
2024/04/23 22:11:55;;;;;;;23.50;13.57;;;5.30;99.90;;;;;;5488376;26;20217;-76
2024/04/23 22:14:43;;;;;;;24.17;13.50;;;5.20;99.90;;;;;;5486924;26;20261;-75
2024/04/23 22:17:30;;;;;;;22.77;13.40;;;5.20;99.90;;;;;;5487257;26;20229;-76
2024/04/23 22:20:37;;;;;;;26.73;13.53;;;5.20;99.90;;;;;;5488140;26;20224;-76